Time;durP1;ratioP1;P1;durP2;ratioP2;P2;SDS_P1;SDS_P2;PMS_P1;PMS_P2;Temp;Humidity;BMP_temperature;BMP_pressure;BME280_temperature;BME280_humidity;BME280_pressure;Samples;Min_cycle;Max_cycle;Signal;HPM_P1;HPM_P2
2022/06/26 00:00:15;;;;;;;33.72;23.85;;;;;;;16.16;100.00;101043.53;5052502;28;20017;-63
2022/06/26 00:02:41;;;;;;;34.72;24.05;;;;;;;15.99;100.00;101052.69;5052047;28;20032;-64
2022/06/26 00:05:07;;;;;;;34.65;23.42;;;;;;;15.87;100.00;101050.19;5053928;28;20024;-63
2022/06/26 00:07:35;;;;;;;34.05;24.27;;;;;;;15.79;100.00;101038.78;5056588;28;20483;-64
2022/06/26 00:10:01;;;;;;;35.63;25.00;;;;;;;15.74;100.00;101035.25;5056280;28;20033;-64
2022/06/26 00:12:26;;;;;;;35.67;25.30;;;;;;;15.75;100.00;101039.69;5056321;28;20032;-63
2022/06/26 00:14:51;;;;;;;37.30;26.08;;;;;;;15.82;100.00;101054.72;5056258;28;20407;-64
2022/06/26 00:17:17;;;;;;;35.65;25.70;;;;;;;15.83;100.00;101056.50;5055913;28;20025;-64
2022/06/26 00:19:42;;;;;;;36.45;25.20;;;;;;;15.92;100.00;101051.00;5052194;28;20025;-64
2022/06/26 00:22:08;;;;;;;37.65;26.85;;;;;;;15.93;100.00;101060.78;5056043;28;20076;-66
2022/06/26 00:24:35;;;;;;;37.67;26.33;;;;;;;16.04;100.00;101056.16;5055981;28;20017;-62
2022/06/26 00:27:02;;;;;;;36.92;26.35;;;;;;;16.03;100.00;101062.41;5056093;28;20029;-62
2022/06/26 00:29:32;;;;;;;36.75;25.85;;;;;;;16.01;100.00;101063.31;5055938;28;20044;-62
2022/06/26 00:31:57;;;;;;;36.80;24.88;;;;;;;15.92;100.00;101060.81;5055913;28;20108;-62
2022/06/26 00:34:23;;;;;;;36.50;24.88;;;;;;;15.88;100.00;101065.28;5055675;28;20525;-62
2022/06/26 00:36:48;;;;;;;33.47;23.42;;;;;;;15.79;100.00;101065.44;5056007;28;20056;-62
2022/06/26 00:39:14;;;;;;;35.30;23.52;;;;;;;15.73;100.00;101071.69;5055533;28;20476;-62
2022/06/26 00:41:39;;;;;;;33.65;23.13;;;;;;;15.69;100.00;101076.16;5055736;28;20103;-62
2022/06/26 00:44:16;;;;;;;35.20;22.92;;;;;;;15.65;100.00;101082.44;5055775;28;20025;-62
2022/06/26 00:46:42;;;;;;;33.13;21.27;;;;;;;15.55;100.00;101086.09;5055401;28;20594;-61
2022/06/26 00:49:08;;;;;;;33.08;21.25;;;;;;;15.50;100.00;101079.97;5055381;28;20090;-64
2022/06/26 00:51:35;;;;;;;32.78;21.95;;;;;;;15.45;100.00;101088.03;5055738;28;20119;-63
2022/06/26 00:54:00;;;;;;;34.75;22.73;;;;;;;15.48;100.00;101095.09;5055657;28;20033;-63
2022/06/26 00:56:26;;;;;;;35.67;22.75;;;;;;;15.47;100.00;101102.19;5055474;28;20071;-62
2022/06/26 00:58:51;;;;;;;34.97;23.38;;;;;;;15.47;100.00;101101.31;5055611;28;20025;-62
2022/06/26 01:01:17;;;;;;;37.45;23.40;;;;;;;15.43;100.00;101103.13;5055158;28;20127;-62
2022/06/26 01:03:43;;;;;;;37.58;23.73;;;;;;;15.43;100.00;101094.25;5055034;28;20472;-62
2022/06/26 01:06:08;;;;;;;39.35;24.50;;;;;;;15.43;100.00;101094.25;5055465;28;20100;-63
2022/06/26 01:08:35;;;;;;;37.55;24.42;;;;;;;15.40;100.00;101102.28;5055366;28;20056;-62
2022/06/26 01:11:01;;;;;;;38.33;24.88;;;;;;;15.38;100.00;101101.41;5054981;28;20037;-62
2022/06/26 01:13:27;;;;;;;39.25;25.42;;;;;;;15.38;100.00;101101.41;5055212;28;20025;-62
2022/06/26 01:15:53;;;;;;;40.65;25.42;;;;;;;15.41;100.00;101101.41;5054316;28;20032;-62
2022/06/26 01:18:19;;;;;;;39.88;25.27;;;;;;;15.32;100.00;101107.72;5054995;28;20025;-62
2022/06/26 01:20:44;;;;;;;40.55;25.05;;;;;;;15.35;100.00;101115.66;5055101;28;20419;-63
2022/06/26 01:23:10;;;;;;;40.00;25.65;;;;;;;15.36;100.00;101119.19;5053414;28;20052;-66
2022/06/26 01:25:53;;;;;;;39.35;25.85;;;;;;;15.29;100.00;101119.28;5054972;28;20021;-63
2022/06/26 01:28:18;;;;;;;40.15;25.83;;;;;;;15.24;100.00;101105.13;5051557;28;20464;-63
2022/06/26 01:30:44;;;;;;;42.83;26.77;;;;;;;15.26;100.00;101113.09;5054528;28;20025;-63
2022/06/26 01:33:10;;;;;;;40.10;25.95;;;;;;;15.21;100.00;101123.78;5054758;28;20029;-64
2022/06/26 01:35:35;;;;;;;42.13;26.77;;;;;;;15.19;100.00;101119.38;5053558;28;20460;-63
2022/06/26 01:38:20;;;;;;;40.80;26.65;;;;;;;15.16;100.00;101120.31;5054475;28;20043;-64
2022/06/26 01:40:46;;;;;;;42.53;27.55;;;;;;;15.16;100.00;101125.63;5051186;28;20032;-64
2022/06/26 01:43:13;;;;;;;42.53;27.48;;;;;;;15.12;100.00;101129.22;5054711;28;20541;-65
2022/06/26 01:45:46;;;;;;;43.72;27.80;;;;;;;15.11;100.00;101122.13;5054512;28;20443;-63
2022/06/26 01:48:12;;;;;;;44.80;28.88;;;;;;;15.10;100.00;101123.00;5054436;28;20035;-64
2022/06/26 01:50:37;;;;;;;43.88;28.80;;;;;;;15.03;100.00;101121.31;5054385;28;20524;-66
2022/06/26 01:53:03;;;;;;;44.22;28.65;;;;;;;15.04;100.00;101113.31;5054496;28;20476;-63
2022/06/26 01:55:28;;;;;;;43.80;28.40;;;;;;;15.05;100.00;101120.41;5054430;28;20076;-64
2022/06/26 01:57:54;;;;;;;44.42;29.17;;;;;;;15.02;100.00;101108.91;5054259;28;20357;-64
2022/06/26 02:00:20;;;;;;;44.30;28.45;;;;;;;14.99;100.00;101110.69;5054498;28;20079;-64
2022/06/26 02:02:45;;;;;;;44.00;28.02;;;;;;;15.01;100.00;101112.47;5053968;28;20036;-63
2022/06/26 02:05:10;;;;;;;45.40;28.90;;;;;;;15.01;100.00;101107.13;5054032;28;20024;-63
2022/06/26 02:07:35;;;;;;;44.05;29.15;;;;;;;14.99;100.00;101099.16;5054181;28;20107;-63
2022/06/26 02:15:29;;;;;;;44.13;28.38;;;;;;;14.92;100.00;101094.81;5051825;28;20083;-63
2022/06/26 02:17:55;;;;;;;44.92;28.50;;;;;;;14.91;100.00;101088.59;5054212;28;20021;-65
2022/06/26 02:20:20;;;;;;;44.00;28.00;;;;;;;14.87;100.00;101089.53;5054182;28;20112;-63
2022/06/26 02:22:45;;;;;;;42.08;27.85;;;;;;;14.88;100.00;101085.06;5053764;28;20069;-63
2022/06/26 02:25:11;;;;;;;42.53;27.20;;;;;;;14.85;100.00;101090.44;5053786;28;20013;-63
2022/06/26 02:27:36;;;;;;;42.58;27.33;;;;;;;14.82;100.00;101086.00;5052531;28;20032;-65
2022/06/26 02:30:02;;;;;;;43.78;28.20;;;;;;;14.81;100.00;101094.91;5053676;28;20425;-63
2022/06/26 02:32:28;;;;;;;44.75;27.52;;;;;;;14.76;100.00;101096.72;5053515;28;20068;-64
2022/06/26 02:34:53;;;;;;;43.85;27.60;;;;;;;14.69;100.00;101097.66;5053540;28;20040;-63
2022/06/26 02:37:18;;;;;;;42.97;26.90;;;;;;;14.65;100.00;101115.44;5053582;28;20108;-63
2022/06/26 02:39:44;;;;;;;41.20;26.45;;;;;;;14.55;100.00;101109.28;5053832;28;20435;-63
2022/06/26 02:42:10;;;;;;;39.95;25.33;;;;;;;14.49;100.00;101114.66;5053232;28;20058;-66
2022/06/26 02:44:35;;;;;;;39.72;25.50;;;;;;;14.41;100.00;101121.78;5053289;28;20036;-63
2022/06/26 02:47:00;;;;;;;41.78;25.15;;;;;;;14.34;100.00;101125.38;5053734;28;20352;-63
2022/06/26 02:49:26;;;;;;;38.70;23.85;;;;;;;14.21;100.00;101122.84;5052963;28;20053;-64
2022/06/26 02:51:51;;;;;;;36.75;21.70;;;;;;;14.18;100.00;101128.13;5053037;28;20032;-62
2022/06/26 02:54:17;;;;;;;35.92;21.52;;;;;;;14.06;100.00;101136.19;5053403;28;20387;-63
2022/06/26 02:56:42;;;;;;;35.22;21.00;;;;;;;14.01;100.00;101132.66;5053017;28;20028;-64
2022/06/26 02:59:08;;;;;;;36.15;20.75;;;;;;;13.97;100.00;101133.59;5053392;28;20693;-63
2022/06/26 03:01:33;;;;;;;35.92;20.38;;;;;;;13.91;100.00;101134.50;5053092;28;20537;-63
2022/06/26 03:03:58;;;;;;;34.17;19.50;;;;;;;13.84;100.00;101141.63;5052927;28;20426;-63
2022/06/26 03:06:23;;;;;;;34.22;19.48;;;;;;;13.81;100.00;101146.94;5053393;28;20108;-63
2022/06/26 03:08:49;;;;;;;33.20;19.10;;;;;;;13.77;100.00;101143.44;5053302;28;20013;-65
2022/06/26 03:11:14;;;;;;;34.53;19.48;;;;;;;13.74;100.00;101138.09;5048639;28;20025;-64
2022/06/26 03:13:39;;;;;;;34.42;19.15;;;;;;;13.70;100.00;101140.78;5052924;28;20032;-63
2022/06/26 03:16:05;;;;;;;35.15;19.88;;;;;;;13.73;100.00;101143.41;5052724;28;20041;-63
2022/06/26 03:18:30;;;;;;;35.45;20.33;;;;;;;13.70;100.00;101144.34;5052947;28;20032;-64
2022/06/26 03:20:56;;;;;;;35.92;20.45;;;;;;;13.70;100.00;101154.97;5053079;28;20103;-64
2022/06/26 03:24:00;;;;;;;37.70;20.92;;;;;;;13.70;100.00;101162.94;5052614;28;20387;-64
2022/06/26 03:26:07;;;;;;;34.95;20.63;;;;;;;13.70;100.00;101162.94;5052465;28;20036;-63
2022/06/26 03:28:32;;;;;;;35.90;21.10;;;;;;;13.67;100.00;101168.22;5052673;28;20024;-64
2022/06/26 03:30:58;;;;;;;35.65;20.45;;;;;;;13.66;100.00;101163.84;5052959;28;20460;-64
2022/06/26 03:33:23;;;;;;;35.78;20.45;;;;;;;13.63;100.00;101169.16;5052800;28;20116;-62
2022/06/26 03:35:48;;;;;;;35.53;19.85;;;;;;;13.58;100.00;101163.84;5052994;28;20023;-62
2022/06/26 03:38:15;;;;;;;35.58;19.65;;;;;;;13.57;100.00;101174.47;5052174;28;20418;-64
2022/06/26 03:40:41;;;;;;;35.25;19.70;;;;;;;13.53;100.00;101181.56;5052476;28;20090;-62
2022/06/26 03:43:11;;;;;;;36.65;19.85;;;;;;;13.49;100.00;101181.59;5052528;28;20033;-62
2022/06/26 03:45:37;;;;;;;34.75;18.55;;;;;;;13.46;100.00;101195.75;5052575;28;20025;-62
2022/06/26 03:48:03;;;;;;;33.67;18.45;;;;;;;13.44;100.00;101200.19;5052332;28;20028;-62
2022/06/26 03:50:28;;;;;;;34.20;18.73;;;;;;;13.44;100.00;101192.22;5052202;28;20053;-62
2022/06/26 03:52:54;;;;;;;36.03;18.55;;;;;;;13.41;100.00;101193.13;5052300;28;20021;-62
2022/06/26 03:55:19;;;;;;;33.60;18.25;;;;;;;13.39;100.00;101192.22;5052465;28;20025;-62
2022/06/26 03:57:44;;;;;;;34.95;19.13;;;;;;;13.37;100.00;101201.09;5052370;28;20021;-63
2022/06/26 04:00:10;;;;;;;34.70;18.75;;;;;;;13.37;100.00;101199.31;5052489;28;20041;-63
2022/06/26 04:02:37;;;;;;;33.80;18.17;;;;;;;13.35;100.00;101195.78;5052404;28;20183;-61
2022/06/26 04:05:04;;;;;;;33.78;16.98;;;;;;;13.34;100.00;101198.38;5052374;28;20021;-62
2022/06/26 04:07:30;;;;;;;30.95;16.30;;;;;;;13.33;100.00;101175.41;5050972;28;20477;-64
2022/06/26 04:09:55;;;;;;;32.75;16.42;;;;;;;13.32;100.00;101178.94;5052390;28;20027;-62
2022/06/26 04:12:20;;;;;;;33.05;16.70;;;;;;;13.31;100.00;101191.31;5052135;28;20024;-63
2022/06/26 04:14:46;;;;;;;31.85;15.98;;;;;;;13.34;100.00;101190.41;5052127;28;20031;-62
2022/06/26 04:17:12;;;;;;;30.92;16.27;;;;;;;13.33;100.00;101191.31;5052156;28;20047;-63
2022/06/26 04:19:38;;;;;;;31.38;16.02;;;;;;;13.35;100.00;101200.19;5052182;28;20021;-63
2022/06/26 04:22:04;;;;;;;30.77;15.30;;;;;;;13.32;100.00;101189.53;5052318;28;20031;-63
2022/06/26 04:24:29;;;;;;;30.80;15.63;;;;;;;13.32;100.00;101202.81;5052052;28;20025;-63
2022/06/26 04:26:55;;;;;;;28.73;14.68;;;;;;;13.35;100.00;101210.81;5052524;28;20129;-62
2022/06/26 04:29:20;;;;;;;29.70;14.90;;;;;;;13.37;100.00;101206.41;5051799;28;20029;-63
2022/06/26 04:31:46;;;;;;;29.40;14.90;;;;;;;13.36;100.00;101213.47;5052198;28;20111;-62
2022/06/26 04:34:11;;;;;;;30.42;14.73;;;;;;;13.41;100.00;101224.06;5052045;28;20493;-66
2022/06/26 04:36:36;;;;;;;29.52;15.13;;;;;;;13.45;100.00;101230.28;5051899;28;20032;-64
2022/06/26 04:39:02;;;;;;;32.58;15.25;;;;;;;13.46;100.00;101235.59;5084476;28;20029;-66
2022/06/26 04:41:38;;;;;;;31.25;14.93;;;;;;;13.52;100.00;101246.19;5050535;28;20495;-63
2022/06/26 04:44:05;;;;;;;31.17;15.20;;;;;;;13.57;100.00;101243.53;5052072;28;20375;-63
2022/06/26 04:46:31;;;;;;;30.67;15.60;;;;;;;13.62;100.00;101246.19;5052120;28;20049;-64
2022/06/26 04:48:57;;;;;;;28.58;14.55;;;;;;;13.67;100.00;101257.69;5051839;28;20132;-63
2022/06/26 04:51:23;;;;;;;30.65;15.45;;;;;;;13.77;100.00;101267.41;5053509;28;20033;-64
2022/06/26 04:53:48;;;;;;;30.58;15.15;;;;;;;13.83;100.00;101261.19;5055482;28;20053;-63
2022/06/26 04:56:13;;;;;;;28.92;14.50;;;;;;;13.85;100.00;101256.75;5055609;28;20021;-63
2022/06/26 04:58:39;;;;;;;30.73;15.43;;;;;;;13.89;100.00;101256.75;5055171;28;20029;-64
2022/06/26 05:01:04;;;;;;;29.10;14.90;;;;;;;13.92;100.00;101251.44;5055724;28;20107;-62
2022/06/26 05:03:30;;;;;;;30.67;14.80;;;;;;;13.98;100.00;101249.63;5055602;28;20100;-63
2022/06/26 05:05:56;;;;;;;29.35;14.10;;;;;;;14.03;100.00;101258.47;5055310;28;20021;-63
2022/06/26 05:08:21;;;;;;;28.48;13.98;;;;;;;13.99;100.00;101257.59;5055626;28;20041;-63
2022/06/26 05:10:46;;;;;;;29.10;13.40;;;;;;;13.91;100.00;101257.63;5055309;28;20364;-63
2022/06/26 05:13:12;;;;;;;30.23;13.88;;;;;;;13.89;100.00;101254.09;5053393;28;20211;-63
2022/06/26 05:15:38;;;;;;;28.27;14.38;;;;;;;13.90;100.00;101257.63;5055416;28;20025;-63
2022/06/26 05:18:03;;;;;;;29.67;13.68;;;;;;;13.91;100.00;101270.03;5055068;28;20384;-63
2022/06/26 05:20:29;;;;;;;29.70;13.75;;;;;;;13.90;100.00;101263.81;5055164;28;20031;-63
2022/06/26 05:22:55;;;;;;;30.60;14.23;;;;;;;13.91;100.00;101260.28;5055243;28;20025;-63
2022/06/26 05:25:20;;;;;;;28.88;13.43;;;;;;;13.94;100.00;101270.03;5054892;28;20463;-62
2022/06/26 05:27:45;;;;;;;28.33;12.90;;;;;;;14.00;100.00;101263.81;5054794;28;20029;-62
2022/06/26 05:30:11;;;;;;;30.13;13.77;;;;;;;14.06;100.00;101263.78;5054710;28;20130;-62
2022/06/26 05:32:36;;;;;;;28.83;13.40;;;;;;;14.10;100.00;101257.56;5054624;28;20075;-62
2022/06/26 05:35:02;;;;;;;28.17;12.55;;;;;;;14.13;100.00;101255.78;5054781;28;20029;-62
2022/06/26 05:37:27;;;;;;;27.65;12.50;;;;;;;14.14;100.00;101254.03;5054797;28;20074;-62
2022/06/26 05:39:53;;;;;;;27.50;12.25;;;;;;;14.23;100.00;101263.72;5054841;28;20025;-62
2022/06/26 05:42:18;;;;;;;28.88;12.90;;;;;;;14.30;100.00;101261.03;5054989;28;20060;-62
2022/06/26 05:44:43;;;;;;;27.38;13.25;;;;;;;14.33;100.00;101273.44;5054460;28;20043;-62
2022/06/26 05:47:09;;;;;;;28.10;12.50;;;;;;;14.42;100.00;101272.50;5054641;28;20032;-63
2022/06/26 05:49:34;;;;;;;27.40;12.20;;;;;;;14.46;100.00;101280.47;5054332;28;20084;-62
2022/06/26 05:52:01;;;;;;;25.85;11.40;;;;;;;14.55;100.00;101294.63;5054479;28;20495;-62
2022/06/26 05:54:26;;;;;;;24.70;11.45;;;;;;;14.64;100.00;101295.47;5054225;28;20084;-62
2022/06/26 05:56:51;;;;;;;26.63;11.45;;;;;;;14.80;100.00;101306.03;5054489;28;20021;-63
2022/06/26 05:59:17;;;;;;;25.10;10.68;;;;;;;14.96;100.00;101306.81;5054553;28;20021;-63
2022/06/26 06:01:42;;;;;;;25.05;10.77;;;;;;;15.01;100.00;101307.66;5053871;28;20024;-61
2022/06/26 06:04:08;;;;;;;25.95;10.50;;;;;;;15.04;100.00;101309.44;5054325;28;20365;-62
2022/06/26 06:06:34;;;;;;;23.10;9.65;;;;;;;15.09;100.00;101315.63;5053983;28;20039;-63
2022/06/26 06:08:59;;;;;;;25.98;10.70;;;;;;;15.06;100.00;101318.31;5053974;28;20029;-62
2022/06/26 06:11:24;;;;;;;25.10;10.38;;;;;;;15.05;100.00;101317.41;5054370;28;20078;-62
2022/06/26 06:13:51;;;;;;;23.90;9.10;;;;;;;15.18;100.00;101315.53;5054018;28;20480;-62
2022/06/26 06:16:16;;;;;;;24.98;10.48;;;;;;;15.33;100.00;101307.44;5053963;28;20372;-63
2022/06/26 06:18:42;;;;;;;25.30;10.35;;;;;;;15.53;100.00;101306.38;5053851;28;20021;-62
2022/06/26 06:21:07;;;;;;;22.67;9.32;;;;;;;15.71;100.00;101307.13;5053909;28;20059;-62
2022/06/26 06:23:32;;;;;;;23.70;9.52;;;;;;;15.81;100.00;101314.16;5053760;28;20096;-62
2022/06/26 06:25:58;;;;;;;22.48;8.88;;;;;;;15.92;100.00;101304.28;5053754;28;20055;-63
2022/06/26 06:28:23;;;;;;;23.02;9.15;;;;;;;15.92;100.00;101306.06;5053544;28;20116;-62
2022/06/26 06:30:48;;;;;;;21.88;9.10;;;;;;;15.89;100.00;101306.97;5053898;28;20021;-62
2022/06/26 06:33:14;;;;;;;21.88;8.50;;;;;;;15.81;100.00;101311.50;5053548;28;20021;-63
2022/06/26 06:35:40;;;;;;;23.17;9.13;;;;;;;15.81;100.00;101320.38;5053684;28;20017;-62
2022/06/26 06:38:06;;;;;;;23.55;8.82;;;;;;;15.83;100.00;101329.25;5053781;28;20392;-62
2022/06/26 06:40:32;;;;;;;23.02;9.20;;;;;;;15.89;100.00;101333.63;5053435;28;20024;-62
2022/06/26 06:42:57;;;;;;;22.35;8.68;;;;;;;16.00;100.00;101329.09;5053310;28;20163;-62
2022/06/26 06:45:22;;;;;;;20.67;8.10;;;;;;;16.12;100.00;101337.81;5053356;28;20542;-62
2022/06/26 06:47:48;;;;;;;21.83;8.48;;;;;;;16.18;100.00;101345.78;5053006;28;20025;-62
2022/06/26 06:50:13;;;;;;;22.63;8.80;;;;;;;16.17;100.00;101352.00;5052935;28;20049;-62
2022/06/26 06:52:38;;;;;;;22.05;8.43;;;;;;;16.06;100.00;101362.78;5053112;28;20055;-62
2022/06/26 06:55:04;;;;;;;21.90;8.70;;;;;;;16.09;100.00;101365.44;5052975;28;20025;-63
2022/06/26 06:57:29;;;;;;;20.50;7.90;;;;;;;16.12;100.00;101380.50;5053208;28;20036;-63
2022/06/26 06:59:55;;;;;;;21.95;8.00;;;;;;;16.16;100.00;101385.81;5053421;28;20025;-62
2022/06/26 07:02:20;;;;;;;21.80;8.38;;;;;;;16.23;100.00;101383.94;5053062;28;20443;-64
2022/06/26 07:04:45;;;;;;;22.80;8.60;;;;;;;16.34;100.00;101390.06;5053228;28;20029;-62
2022/06/26 07:07:11;;;;;;;21.85;8.48;;;;;;;16.47;100.00;101400.56;5053091;28;20376;-62
2022/06/26 07:09:36;;;;;;;20.98;8.35;;;;;;;16.49;100.00;101404.13;5053136;28;20108;-61
2022/06/26 07:12:02;;;;;;;20.85;8.80;;;;;;;16.56;100.00;101395.16;5053055;28;20438;-62
2022/06/26 07:14:27;;;;;;;21.60;8.07;;;;;;;16.71;100.00;101404.75;5052608;28;20527;-62
2022/06/26 07:16:53;;;;;;;21.55;8.45;;;;;;;16.70;100.00;101401.22;5052704;28;20487;-62
2022/06/26 07:19:18;;;;;;;21.15;8.63;;;;;;;16.80;100.00;101401.94;5053038;28;20483;-62
2022/06/26 07:21:43;;;;;;;21.15;8.30;;;;;;;16.84;100.00;101401.00;5052920;28;20051;-62
2022/06/26 07:24:12;;;;;;;21.45;8.70;;;;;;;16.98;100.00;101399.97;5052520;28;20025;-62
2022/06/26 07:26:39;;;;;;;20.88;8.68;;;;;;;16.99;100.00;101399.97;5052816;28;20055;-62
2022/06/26 07:29:05;;;;;;;21.23;8.55;;;;;;;17.08;100.00;101394.50;5052490;28;20376;-61
2022/06/26 07:31:30;;;;;;;21.48;8.55;;;;;;;17.06;100.00;101404.31;5052331;28;20032;-63
2022/06/26 07:34:15;;;;;;;20.33;8.02;;;;;;;16.97;100.00;101412.47;5052612;28;20056;-63
2022/06/26 07:36:42;;;;;;;20.42;8.40;;;;;;;16.92;100.00;101425.00;5052862;28;20056;-63
2022/06/26 07:39:09;;;;;;;20.67;8.30;;;;;;;17.00;100.00;101417.75;5052411;28;20025;-62
2022/06/26 07:41:35;;;;;;;20.45;8.70;;;;;;;16.95;100.00;101403.59;5052341;28;20104;-62
2022/06/26 07:44:00;;;;;;;20.92;8.77;;;;;;;16.97;100.00;101412.47;5052576;28;20120;-63
2022/06/26 07:46:26;;;;;;;20.63;8.70;;;;;;;16.98;100.00;101403.56;5052344;28;20032;-63
2022/06/26 07:48:51;;;;;;;20.95;8.80;;;;;;;17.04;100.00;101413.28;5051949;28;20037;-62
2022/06/26 07:51:16;;;;;;;21.20;8.40;;;;;;;17.11;100.00;101419.41;5051712;28;20025;-62
2022/06/26 07:53:42;;;;;;;20.65;7.68;;;;;;;17.03;100.00;101414.16;5046964;28;20079;-64
2022/06/26 07:56:07;;;;;;;21.30;8.52;;;;;;;17.08;100.00;101406.97;5052280;28;20032;-63
2022/06/26 07:58:32;;;;;;;19.85;8.30;;;;;;;17.05;100.00;101415.91;5052378;28;20020;-62
2022/06/26 08:00:58;;;;;;;20.70;8.10;;;;;;;17.18;100.00;101426.41;5052219;28;20033;-63
2022/06/26 08:03:23;;;;;;;20.33;8.15;;;;;;;17.10;100.00;101429.22;5052179;28;20365;-62
2022/06/26 08:05:49;;;;;;;19.95;7.72;;;;;;;17.08;100.00;101429.22;5052105;28;20029;-63
2022/06/26 08:08:14;;;;;;;19.98;8.13;;;;;;;17.13;100.00;101433.63;5052031;28;20100;-62
2022/06/26 08:10:40;;;;;;;19.35;8.40;;;;;;;17.17;100.00;101440.66;5052197;28;20037;-62
2022/06/26 08:13:06;;;;;;;21.23;8.40;;;;;;;17.19;100.00;101433.53;5052041;28;20017;-62
2022/06/26 08:15:32;;;;;;;20.23;8.13;;;;;;;17.18;100.00;101435.34;5051964;28;20039;-62
2022/06/26 08:17:57;;;;;;;19.75;7.80;;;;;;;17.02;100.00;101436.44;5052236;28;20112;-62
2022/06/26 08:20:23;;;;;;;20.73;7.85;;;;;;;16.98;100.00;101438.28;5052201;28;20119;-62
2022/06/26 08:22:49;;;;;;;19.85;7.88;;;;;;;17.00;100.00;101439.13;5049047;28;20167;-63
2022/06/26 08:25:14;;;;;;;20.33;7.90;;;;;;;17.05;100.00;101431.03;5052246;28;20042;-63
2022/06/26 08:27:39;;;;;;;19.92;8.15;;;;;;;17.06;100.00;101438.16;5056224;28;20400;-62
2022/06/26 08:30:06;;;;;;;19.98;8.30;;;;;;;17.09;100.00;101446.13;5055800;28;20464;-62
2022/06/26 08:32:32;;;;;;;21.05;8.52;;;;;;;17.11;100.00;101433.66;5055723;28;20474;-63
2022/06/26 08:34:58;;;;;;;19.88;8.10;;;;;;;17.20;100.00;101429.97;5051695;28;20032;-62
2022/06/26 08:37:23;;;;;;;21.60;8.90;;;;;;;17.29;100.00;101424.50;5055946;28;20025;-62
2022/06/26 08:39:48;;;;;;;20.00;8.38;;;;;;;17.42;100.00;101423.41;5055881;28;20017;-62
2022/06/26 08:42:14;;;;;;;19.60;7.63;;;;;;;17.52;100.00;101420.59;5055745;28;20116;-62
2022/06/26 08:44:42;;;;;;;19.77;7.32;;;;;;;17.45;100.00;101435.84;5055784;28;20053;-62
2022/06/26 08:47:10;;;;;;;18.98;7.03;;;;;;;17.43;100.00;101438.53;5055510;28;20029;-62
2022/06/26 08:49:36;;;;;;;19.80;7.07;;;;;;;17.41;100.00;101448.34;5055220;28;20598;-62
2022/06/26 08:52:03;;;;;;;18.58;6.90;;;;;;;17.31;100.00;101443.16;5055785;28;20044;-62
2022/06/26 08:54:29;;;;;;;19.67;7.38;;;;;;;17.26;100.00;101445.91;5051465;28;20034;-62
2022/06/26 08:56:55;;;;;;;19.45;7.10;;;;;;;17.21;100.00;101448.66;5055248;28;20028;-62
2022/06/26 08:59:21;;;;;;;18.55;6.90;;;;;;;17.50;100.00;101450.00;5055498;28;20108;-63
2022/06/26 09:01:47;;;;;;;18.00;6.90;;;;;;;17.57;100.00;101440.09;5055143;28;20044;-62
2022/06/26 09:04:13;;;;;;;19.75;7.03;;;;;;;17.76;100.00;101441.56;5055407;28;20025;-63
2022/06/26 09:06:40;;;;;;;18.60;6.63;;;;;;;17.70;100.00;101443.47;5055326;28;20029;-62
2022/06/26 09:09:14;;;;;;;18.00;6.60;;;;;;;17.56;100.00;101449.03;5055007;28;20017;-64
2022/06/26 09:11:40;;;;;;;18.75;6.70;;;;;;;17.71;100.00;101447.94;5054953;28;20064;-63
2022/06/26 09:14:05;;;;;;;18.70;6.60;;;;;;;17.73;100.00;101446.97;5055109;28;20075;-62
2022/06/26 09:16:32;;;;;;;17.55;6.40;;;;;;;17.86;100.00;101441.44;5055202;28;20075;-62
2022/06/26 09:19:29;;;;;;;17.60;6.50;;;;;;;18.01;100.00;101448.34;5050763;28;20021;-62
2022/06/26 09:22:07;;;;;;;17.42;6.00;;;;;;;18.08;100.00;101442.84;5043622;28;20122;-62
2022/06/26 09:24:36;;;;;;;19.10;5.90;;;;;;;18.34;100.00;101438.84;5037587;28;20097;-62
2022/06/26 09:27:10;;;;;;;17.02;5.40;;;;;;;18.44;100.00;101443.09;5043939;28;20114;-62
2022/06/26 09:29:36;;;;;;;16.05;5.28;;;;;;;18.25;100.00;101447.06;5038270;28;20113;-63
2022/06/26 09:32:08;;;;;;;16.27;5.15;;;;;;;18.14;100.00;101462.41;5043975;28;20049;-61
2022/06/26 09:34:34;;;;;;;18.15;5.32;;;;;;;18.06;100.00;101462.53;5037505;28;20042;-63
2022/06/26 09:37:03;;;;;;;17.35;5.60;;;;;;;18.16;100.00;101465.94;5043725;28;20029;-62
2022/06/26 09:39:32;;;;;;;16.63;5.47;;;;;;;18.18;100.00;101445.41;5040669;28;20117;-63
2022/06/26 09:42:24;;;;;;;17.08;5.40;;;;;;;18.44;100.00;101442.25;5043825;28;20453;-62
2022/06/26 09:44:52;;;;;;;17.77;5.85;;;;;;;18.64;100.00;101450.75;5041493;28;20029;-62
2022/06/26 09:47:24;;;;;;;18.23;5.75;;;;;;;18.72;100.00;101461.31;5041569;28;20029;-63
2022/06/26 09:49:51;;;;;;;15.93;5.20;;;;;;;18.97;100.00;101456.41;5043657;28;20421;-62
2022/06/26 09:52:22;;;;;;;16.48;5.63;;;;;;;18.93;100.00;101448.44;5042313;28;20064;-66
2022/06/26 09:54:48;;;;;;;15.48;5.03;;;;;;;18.77;100.00;101459.44;5042633;28;20028;-63
2022/06/26 09:57:16;;;;;;;16.30;4.55;;;;;;;18.66;100.00;101465.94;5045367;28;20025;-64
2022/06/26 09:59:42;;;;;;;16.33;4.90;;;;;;;18.74;100.00;101467.53;5053506;28;20083;-63
2022/06/26 10:07:51;;;;;;;14.68;4.60;;;;;;;19.31;100.00;101468.19;5052672;28;20043;-64
2022/06/26 10:10:20;;;;;;;15.38;4.88;;;;;;;19.28;100.00;101466.44;5053643;28;20021;-65
2022/06/26 10:12:48;;;;;;;15.35;5.10;;;;;;;19.23;100.00;101478.19;5053633;28;20379;-63
2022/06/26 10:15:17;;;;;;;17.73;5.40;;;;;;;19.47;100.00;101474.94;5053614;28;20021;-64
2022/06/26 10:18:01;;;;;;;15.55;4.60;;;;;;;19.86;100.00;101490.16;5053842;28;20067;-63
2022/06/26 10:20:30;;;;;;;14.15;4.53;;;;;;;19.90;100.00;101485.63;5053362;28;20059;-67
2022/06/26 10:22:56;;;;;;;14.07;4.72;;;;;;;19.93;100.00;101489.09;5053371;28;20390;-63
2022/06/26 10:25:26;;;;;;;14.60;4.40;;;;;;;20.17;100.00;101489.41;5053319;28;20029;-64
2022/06/26 10:27:51;;;;;;;16.10;4.47;;;;;;;20.85;100.00;101493.88;5053120;28;20029;-64
2022/06/26 10:30:20;;;;;;;16.70;4.82;;;;;;;21.29;100.00;101481.84;5053306;28;20087;-67
2022/06/26 10:32:46;;;;;;;16.10;4.70;;;;;;;21.45;100.00;101485.84;5053600;28;20063;-64
2022/06/26 10:35:13;;;;;;;14.80;4.85;;;;;;;21.51;100.00;101488.38;5052986;28;20024;-66
2022/06/26 10:37:49;;;;;;;15.75;4.60;;;;;;;21.84;100.00;101484.66;5053125;28;20029;-65
2022/06/26 10:43:18;;;;;;;18.63;6.22;;;;;;;22.41;100.00;101488.13;5050494;28;20043;-65
2022/06/26 10:45:44;;;;;;;16.10;5.35;;;;;;;22.58;100.00;101488.41;5052929;28;20032;-65
2022/06/26 10:48:21;;;;;;;16.02;4.80;;;;;;;23.08;100.00;101486.59;5051894;28;20036;-64
2022/06/26 10:50:58;;;;;;;16.63;4.90;;;;;;;23.82;95.59;101481.03;5052789;28;20025;-63
2022/06/26 10:53:26;;;;;;;15.85;4.85;;;;;;;24.11;86.64;101481.69;5052931;28;20037;-63
2022/06/26 10:55:59;;;;;;;15.32;4.20;;;;;;;24.02;85.92;101488.34;5051356;28;20122;-63
2022/06/26 10:58:31;;;;;;;13.98;3.92;;;;;;;23.95;82.66;101490.41;5053102;28;20021;-63
2022/06/26 11:01:02;;;;;;;17.65;3.88;;;;;;;24.13;82.09;101493.28;5052640;28;20016;-63
2022/06/26 11:03:29;;;;;;;15.18;3.80;;;;;;;23.92;79.69;101493.25;5052569;28;20073;-63
2022/06/26 11:06:05;;;;;;;15.48;4.00;;;;;;;23.85;81.76;101500.69;5052675;28;20052;-63
2022/06/26 11:08:34;;;;;;;14.75;4.10;;;;;;;23.52;79.58;101485.84;5049009;28;20111;-63
2022/06/26 11:11:01;;;;;;;13.80;3.95;;;;;;;23.82;82.86;101489.13;5048718;28;20040;-63
2022/06/26 11:13:26;;;;;;;12.60;3.92;;;;;;;23.93;79.24;101492.31;5052727;28;20029;-63
2022/06/26 11:15:52;;;;;;;15.88;3.97;;;;;;;23.78;76.49;101476.69;5052800;28;20522;-63